Time;durP1;ratioP1;P1;durP2;ratioP2;P2;SDS_P1;SDS_P2;PMS_P1;PMS_P2;Temp;Humidity;BMP_temperature;BMP_pressure;BME280_temperature;BME280_humidity;BME280_pressure;Samples;Min_cycle;Max_cycle;Signal;HPM_P1;HPM_P2
2024/01/20 00:02:06;;;;;;;13.45;8.85;;;;;;;;;;5070134;28;20073;-84
2024/01/20 00:04:32;;;;;;;12.82;7.97;;;;;;;;;;5070313;28;20514;-84
2024/01/20 00:06:58;;;;;;;16.13;8.75;;;;;;;;;;5070873;28;20127;-84
2024/01/20 00:09:24;;;;;;;13.57;8.70;;;;;;;;;;5069800;28;20040;-84
2024/01/20 00:11:50;;;;;;;12.18;8.73;;;;;;;;;;5071012;28;20052;-85
2024/01/20 00:14:16;;;;;;;13.98;8.48;;;;;;;;;;5071317;28;20078;-83
2024/01/20 00:16:42;;;;;;;13.90;8.60;;;;;;;;;;5071021;28;20479;-85
2024/01/20 00:19:08;;;;;;;12.80;7.97;;;;;;;;;;5070606;28;20101;-85
2024/01/20 00:21:34;;;;;;;13.90;8.80;;;;;;;;;;5069644;28;20119;-83
2024/01/20 00:24:00;;;;;;;16.40;8.10;;;;;;;;;;5071904;28;20024;-83
2024/01/20 00:26:26;;;;;;;12.32;8.15;;;;;;;;;;5071065;28;20469;-84
2024/01/20 00:28:52;;;;;;;15.10;8.20;;;;;;;;;;5070837;28;20122;-84
2024/01/20 00:31:18;;;;;;;17.70;8.63;;;;;;;;;;5070480;28;20393;-86
2024/01/20 00:33:44;;;;;;;13.27;8.68;;;;;;;;;;5070451;28;20048;-83
2024/01/20 00:36:10;;;;;;;14.60;8.68;;;;;;;;;;5070541;28;20040;-84
2024/01/20 00:38:38;;;;;;;12.65;8.38;;;;;;;;;;5070576;28;20021;-83
2024/01/20 00:41:05;;;;;;;17.33;8.60;;;;;;;;;;5070470;28;20105;-84
2024/01/20 00:43:32;;;;;;;13.70;8.40;;;;;;;;;;5071328;28;20020;-84
2024/01/20 00:45:58;;;;;;;13.23;8.70;;;;;;;;;;5070371;28;20550;-83
2024/01/20 00:48:24;;;;;;;14.40;8.82;;;;;;;;;;5069093;28;20035;-83
2024/01/20 00:50:51;;;;;;;13.35;9.27;;;;;;;;;;5070126;28;20037;-84
2024/01/20 00:53:17;;;;;;;12.20;8.38;;;;;;;;;;5070560;28;20025;-83
2024/01/20 00:55:43;;;;;;;13.77;8.95;;;;;;;;;;5069903;28;20032;-83
2024/01/20 00:58:09;;;;;;;15.13;8.93;;;;;;;;;;5070216;28;20035;-84
2024/01/20 01:00:35;;;;;;;16.48;9.27;;;;;;;;;;5068586;28;20020;-83
2024/01/20 01:03:01;;;;;;;15.43;9.20;;;;;;;;;;5071309;28;20116;-84
2024/01/20 01:05:27;;;;;;;14.57;9.00;;;;;;;;;;5070213;28;20032;-84
2024/01/20 01:07:53;;;;;;;16.25;9.00;;;;;;;;;;5070184;28;20017;-84
2024/01/20 01:10:19;;;;;;;18.40;9.57;;;;;;;;;;5070241;28;20369;-84
2024/01/20 01:12:45;;;;;;;17.63;9.30;;;;;;;;;;5070162;28;20024;-84
2024/01/20 01:15:11;;;;;;;17.30;9.18;;;;;;;;;;5069833;28;20434;-84
2024/01/20 01:17:37;;;;;;;13.20;9.15;;;;;;;;;;5070051;28;20055;-84
2024/01/20 01:20:04;;;;;;;15.00;8.88;;;;;;;;;;5068763;28;20025;-84
2024/01/20 01:22:30;;;;;;;13.15;8.63;;;;;;;;;;5068333;28;20387;-84
2024/01/20 01:24:56;;;;;;;13.98;8.10;;;;;;;;;;5067922;28;20032;-84
2024/01/20 01:27:22;;;;;;;13.40;8.52;;;;;;;;;;5069075;28;20025;-84
2024/01/20 01:29:48;;;;;;;15.10;8.43;;;;;;;;;;5068648;28;20032;-84
2024/01/20 01:32:14;;;;;;;24.48;11.77;;;;;;;;;;5069158;28;20024;-84
2024/01/20 01:34:40;;;;;;;18.10;10.18;;;;;;;;;;5069055;28;20029;-84
2024/01/20 01:37:06;;;;;;;19.48;9.10;;;;;;;;;;5068763;28;20123;-83
2024/01/20 01:39:32;;;;;;;18.88;8.90;;;;;;;;;;5069576;28;20059;-84
2024/01/20 01:41:58;;;;;;;14.80;8.60;;;;;;;;;;5068991;28;20064;-84
2024/01/20 01:44:24;;;;;;;12.63;8.10;;;;;;;;;;5069037;28;20028;-84
2024/01/20 01:46:50;;;;;;;11.70;7.13;;;;;;;;;;5067644;28;20114;-84
2024/01/20 01:49:16;;;;;;;18.15;8.93;;;;;;;;;;5068876;28;20024;-84
2024/01/20 01:51:43;;;;;;;16.45;8.75;;;;;;;;;;5068539;28;20033;-84
2024/01/20 01:54:09;;;;;;;15.10;8.40;;;;;;;;;;5069014;28;20024;-84
2024/01/20 01:56:35;;;;;;;11.57;8.13;;;;;;;;;;5069760;28;20391;-83
2024/01/20 01:59:01;;;;;;;15.65;8.00;;;;;;;;;;5068740;28;20508;-84
2024/01/20 02:01:27;;;;;;;14.18;7.88;;;;;;;;;;5068887;28;20252;-84
2024/01/20 02:03:53;;;;;;;12.25;7.72;;;;;;;;;;5068727;28;20426;-84
2024/01/20 02:06:19;;;;;;;12.38;7.85;;;;;;;;;;5067535;28;20438;-84
2024/01/20 02:08:45;;;;;;;14.80;7.93;;;;;;;;;;5068736;28;20503;-83
2024/01/20 02:11:11;;;;;;;12.82;8.13;;;;;;;;;;5069997;28;20050;-83
2024/01/20 02:13:37;;;;;;;11.40;7.65;;;;;;;;;;5072161;28;20476;-84
2024/01/20 02:16:04;;;;;;;13.65;8.25;;;;;;;;;;5072103;28;20127;-84
2024/01/20 02:18:30;;;;;;;13.20;7.68;;;;;;;;;;5072670;28;20017;-84
2024/01/20 02:20:56;;;;;;;12.95;7.65;;;;;;;;;;5072166;28;20024;-84
2024/01/20 02:23:22;;;;;;;12.45;7.55;;;;;;;;;;5072670;28;20126;-84
2024/01/20 02:25:48;;;;;;;12.32;8.18;;;;;;;;;;5072448;28;20052;-84
2024/01/20 02:28:15;;;;;;;12.18;8.18;;;;;;;;;;5072314;28;20059;-84
2024/01/20 02:30:41;;;;;;;12.77;7.75;;;;;;;;;;5072395;28;20533;-83
2024/01/20 02:33:08;;;;;;;17.33;8.68;;;;;;;;;;5073226;28;20025;-83
2024/01/20 02:35:34;;;;;;;13.70;8.63;;;;;;;;;;5073034;28;20038;-83
2024/01/20 02:38:01;;;;;;;14.80;8.48;;;;;;;;;;5072932;28;20115;-84
2024/01/20 02:40:27;;;;;;;12.95;8.02;;;;;;;;;;5090968;28;20024;-83
2024/01/20 02:42:53;;;;;;;11.73;8.30;;;;;;;;;;5072317;28;20017;-83
2024/01/20 02:45:19;;;;;;;16.00;8.75;;;;;;;;;;5071376;28;20035;-84
2024/01/20 02:47:45;;;;;;;16.30;8.70;;;;;;;;;;5070198;28;20103;-83
2024/01/20 02:50:12;;;;;;;10.70;7.22;;;;;;;;;;5074255;28;20078;-83
2024/01/20 02:52:38;;;;;;;14.02;8.05;;;;;;;;;;5074432;28;20024;-83
2024/01/20 02:55:04;;;;;;;13.57;8.43;;;;;;;;;;5069729;28;20412;-83
2024/01/20 02:57:30;;;;;;;13.15;8.27;;;;;;;;;;5073859;28;20225;-82
2024/01/20 02:59:56;;;;;;;19.95;9.27;;;;;;;;;;5070558;28;20487;-83
2024/01/20 03:02:23;;;;;;;14.88;8.48;;;;;;;;;;5075846;28;20020;-83
2024/01/20 03:04:49;;;;;;;18.75;8.65;;;;;;;;;;5072440;28;20021;-84
2024/01/20 03:07:16;;;;;;;11.15;7.82;;;;;;;;;;5071940;28;20020;-84
2024/01/20 03:09:42;;;;;;;17.42;8.82;;;;;;;;;;5071031;28;20032;-83
2024/01/20 03:12:08;;;;;;;18.40;8.40;;;;;;;;;;5072001;28;20024;-83
2024/01/20 03:14:34;;;;;;;12.02;8.00;;;;;;;;;;5070149;28;20567;-86
2024/01/20 03:17:01;;;;;;;12.15;7.82;;;;;;;;;;5070419;28;20561;-84
2024/01/20 03:19:27;;;;;;;13.02;7.80;;;;;;;;;;5052222;28;20020;-85
2024/01/20 03:21:53;;;;;;;19.95;8.40;;;;;;;;;;5068147;28;20024;-84
2024/01/20 03:24:19;;;;;;;12.77;7.50;;;;;;;;;;5076815;28;20107;-84
2024/01/20 03:26:49;;;;;;;14.02;7.50;;;;;;;;;;5086149;28;20132;-84
2024/01/20 03:29:15;;;;;;;12.32;7.60;;;;;;;;;;5071546;28;20032;-83
2024/01/20 03:31:41;;;;;;;10.13;7.10;;;;;;;;;;5090669;28;20446;-85
2024/01/20 03:34:08;;;;;;;11.23;7.22;;;;;;;;;;5080897;28;20021;-83
2024/01/20 03:36:35;;;;;;;10.13;7.00;;;;;;;;;;5071901;28;20033;-83
2024/01/20 03:39:01;;;;;;;13.57;7.63;;;;;;;;;;5071680;28;20059;-84
2024/01/20 03:41:27;;;;;;;12.73;7.72;;;;;;;;;;5071904;28;20024;-82
2024/01/20 03:43:54;;;;;;;10.82;7.30;;;;;;;;;;5072131;28;20020;-83
2024/01/20 03:46:20;;;;;;;10.48;7.10;;;;;;;;;;5072328;28;20020;-83
2024/01/20 03:48:46;;;;;;;13.48;6.78;;;;;;;;;;5072392;28;20035;-83
2024/01/20 03:51:12;;;;;;;14.50;7.10;;;;;;;;;;5073257;28;20036;-82
2024/01/20 03:53:38;;;;;;;11.65;6.72;;;;;;;;;;5072714;28;20028;-87
2024/01/20 03:56:05;;;;;;;10.00;6.70;;;;;;;;;;5072875;28;20096;-83
2024/01/20 03:58:31;;;;;;;9.95;6.70;;;;;;;;;;5072607;28;20035;-85
2024/01/20 04:00:57;;;;;;;10.57;6.10;;;;;;;;;;5072686;28;20028;-86
2024/01/20 04:03:23;;;;;;;10.32;6.70;;;;;;;;;;5072195;28;20026;-84
2024/01/20 04:05:49;;;;;;;10.00;6.57;;;;;;;;;;5072273;28;20028;-84
2024/01/20 04:08:15;;;;;;;8.70;6.13;;;;;;;;;;5070364;28;20021;-83
2024/01/20 04:10:41;;;;;;;8.85;6.07;;;;;;;;;;5072866;28;20393;-82
2024/01/20 04:13:07;;;;;;;9.65;6.70;;;;;;;;;;5071783;28;20017;-83
2024/01/20 04:15:33;;;;;;;9.20;6.38;;;;;;;;;;5071656;28;20031;-83
2024/01/20 04:17:59;;;;;;;9.43;5.90;;;;;;;;;;5072114;28;20488;-85
2024/01/20 04:20:25;;;;;;;9.65;6.28;;;;;;;;;;5072110;28;20059;-85
2024/01/20 04:22:51;;;;;;;8.00;5.68;;;;;;;;;;5071847;28;20036;-83
2024/01/20 04:25:17;;;;;;;11.70;6.38;;;;;;;;;;5071640;28;20038;-83
2024/01/20 04:27:44;;;;;;;15.75;6.47;;;;;;;;;;5071984;28;20481;-83
2024/01/20 04:30:11;;;;;;;9.38;5.78;;;;;;;;;;5071617;28;20384;-84
2024/01/20 04:32:37;;;;;;;8.68;5.65;;;;;;;;;;5070090;28;20056;-83
2024/01/20 04:35:04;;;;;;;10.25;6.20;;;;;;;;;;5067673;28;20082;-88
2024/01/20 04:37:30;;;;;;;9.68;6.25;;;;;;;;;;5069670;28;20115;-83
2024/01/20 04:39:57;;;;;;;12.00;6.15;;;;;;;;;;5068715;28;20040;-84
2024/01/20 04:42:23;;;;;;;8.35;5.50;;;;;;;;;;5067639;28;20024;-83
2024/01/20 04:44:49;;;;;;;10.18;6.22;;;;;;;;;;5049931;28;20028;-82
2024/01/20 04:47:15;;;;;;;9.98;6.10;;;;;;;;;;5050745;28;20024;-82
2024/01/20 04:49:42;;;;;;;7.70;5.95;;;;;;;;;;5050392;28;20032;-83
2024/01/20 04:52:08;;;;;;;8.60;6.00;;;;;;;;;;5069351;28;20120;-82
2024/01/20 04:54:34;;;;;;;10.45;6.70;;;;;;;;;;5068123;28;20111;-83
2024/01/20 04:57:00;;;;;;;8.45;6.00;;;;;;;;;;5080829;28;20043;-85
2024/01/20 04:59:26;;;;;;;10.77;5.93;;;;;;;;;;5088671;28;20028;-82
2024/01/20 05:01:52;;;;;;;8.00;5.55;;;;;;;;;;5089944;28;20103;-85
2024/01/20 05:04:18;;;;;;;9.27;6.20;;;;;;;;;;5089819;28;20016;-84
2024/01/20 05:06:45;;;;;;;9.18;5.65;;;;;;;;;;5086617;28;20546;-83
2024/01/20 05:09:15;;;;;;;11.95;6.00;;;;;;;;;;5070790;28;20036;-84
2024/01/20 05:11:41;;;;;;;9.18;6.15;;;;;;;;;;5068310;28;20403;-84
2024/01/20 05:14:08;;;;;;;7.25;5.57;;;;;;;;;;5067907;28;20234;-83
2024/01/20 05:16:34;;;;;;;9.02;5.85;;;;;;;;;;5067934;28;20032;-84
2024/01/20 05:19:00;;;;;;;10.27;6.13;;;;;;;;;;5069213;28;20024;-85
2024/01/20 05:21:26;;;;;;;8.80;5.97;;;;;;;;;;5069351;28;20025;-84
2024/01/20 05:23:52;;;;;;;15.63;6.68;;;;;;;;;;5068996;28;20042;-84
2024/01/20 05:26:18;;;;;;;9.75;6.00;;;;;;;;;;5068026;28;20571;-84
2024/01/20 05:28:44;;;;;;;9.52;6.30;;;;;;;;;;5063774;28;20040;-85
2024/01/20 05:31:11;;;;;;;7.57;5.85;;;;;;;;;;5067445;28;20025;-83
2024/01/20 05:33:37;;;;;;;18.08;6.18;;;;;;;;;;5064612;28;20029;-84
2024/01/20 05:36:03;;;;;;;10.73;7.38;;;;;;;;;;5066841;28;20089;-84
2024/01/20 05:38:29;;;;;;;13.02;6.53;;;;;;;;;;5069649;28;20028;-83
2024/01/20 05:40:56;;;;;;;11.32;7.18;;;;;;;;;;5070390;28;20025;-84
2024/01/20 05:43:22;;;;;;;12.65;6.70;;;;;;;;;;5070013;28;20028;-82
2024/01/20 05:45:48;;;;;;;11.93;6.43;;;;;;;;;;5070106;28;20489;-83
2024/01/20 05:48:14;;;;;;;14.52;6.80;;;;;;;;;;5070367;28;20024;-83
2024/01/20 05:50:40;;;;;;;8.32;6.32;;;;;;;;;;5068239;28;20033;-82
2024/01/20 05:53:06;;;;;;;13.73;6.47;;;;;;;;;;5055308;28;20094;-83
2024/01/20 05:55:34;;;;;;;9.75;6.65;;;;;;;;;;5071986;28;20024;-83
2024/01/20 05:58:00;;;;;;;9.68;6.47;;;;;;;;;;5057561;28;20033;-83
2024/01/20 06:00:26;;;;;;;8.80;5.75;;;;;;;;;;5069495;28;20021;-84
2024/01/20 06:02:52;;;;;;;11.07;6.65;;;;;;;;;;5069264;28;20116;-83
2024/01/20 06:05:18;;;;;;;9.43;6.40;;;;;;;;;;5069351;28;20502;-85
2024/01/20 06:07:44;;;;;;;9.15;6.20;;;;;;;;;;5071211;28;20056;-85
2024/01/20 06:10:10;;;;;;;9.85;6.05;;;;;;;;;;5071622;28;20386;-85
2024/01/20 06:12:36;;;;;;;9.60;5.97;;;;;;;;;;5070937;28;20028;-88
2024/01/20 06:15:02;;;;;;;11.82;6.60;;;;;;;;;;5071516;28;20017;-92
2024/01/20 06:17:28;;;;;;;11.52;7.03;;;;;;;;;;5071912;28;20044;-89
2024/01/20 06:19:54;;;;;;;9.85;6.20;;;;;;;;;;5071767;28;20021;-89
2024/01/20 06:22:20;;;;;;;11.00;6.63;;;;;;;;;;5088844;28;20115;-87
2024/01/20 06:24:47;;;;;;;10.32;6.35;;;;;;;;;;5072170;28;20370;-88
2024/01/20 06:27:13;;;;;;;10.35;6.60;;;;;;;;;;5072810;28;20052;-88
2024/01/20 06:29:43;;;;;;;9.68;6.43;;;;;;;;;;5070971;28;20033;-88
2024/01/20 06:32:10;;;;;;;12.40;6.70;;;;;;;;;;5072232;28;20020;-89
2024/01/20 06:34:36;;;;;;;10.10;6.75;;;;;;;;;;5072500;28;20046;-86
2024/01/20 06:37:02;;;;;;;13.18;6.70;;;;;;;;;;5071766;28;20634;-88
2024/01/20 06:39:28;;;;;;;10.60;7.18;;;;;;;;;;5070902;28;20020;-88
2024/01/20 06:41:54;;;;;;;10.70;6.63;;;;;;;;;;5068848;28;20051;-88
2024/01/20 06:44:22;;;;;;;10.90;6.20;;;;;;;;;;5069409;28;20021;-86
2024/01/20 06:46:48;;;;;;;11.23;6.47;;;;;;;;;;5069458;28;20027;-87
2024/01/20 06:49:14;;;;;;;13.07;6.70;;;;;;;;;;5068889;28;20028;-89
2024/01/20 06:51:43;;;;;;;10.55;7.15;;;;;;;;;;5068159;28;20032;-92
2024/01/20 06:54:08;;;;;;;15.05;6.80;;;;;;;;;;5067459;28;20082;-85
2024/01/20 06:56:35;;;;;;;15.02;7.22;;;;;;;;;;5068768;28;20040;-83
2024/01/20 06:59:01;;;;;;;13.80;6.78;;;;;;;;;;5071196;28;20032;-83
2024/01/20 07:01:27;;;;;;;8.52;6.68;;;;;;;;;;5071857;28;20138;-83
2024/01/20 07:03:53;;;;;;;14.40;7.45;;;;;;;;;;5072536;28;20020;-82
2024/01/20 07:06:24;;;;;;;10.23;6.97;;;;;;;;;;5070969;28;20028;-82
2024/01/20 07:08:50;;;;;;;11.25;6.75;;;;;;;;;;5072471;28;20062;-82
2024/01/20 07:11:16;;;;;;;9.75;6.90;;;;;;;;;;5071470;28;20376;-83
2024/01/20 07:13:42;;;;;;;10.65;8.10;;;;;;;;;;5075868;28;20061;-82
2024/01/20 07:16:09;;;;;;;12.63;7.50;;;;;;;;;;5078849;28;20059;-82
2024/01/20 07:18:35;;;;;;;13.00;8.07;;;;;;;;;;5071430;28;20057;-83
2024/01/20 07:21:01;;;;;;;11.50;7.70;;;;;;;;;;5071359;28;20052;-81
2024/01/20 07:23:26;;;;;;;10.90;7.40;;;;;;;;;;5070155;28;20032;-81
2024/01/20 07:25:52;;;;;;;27.70;7.50;;;;;;;;;;5070095;28;20420;-88
2024/01/20 07:28:18;;;;;;;19.48;9.07;;;;;;;;;;5047724;28;20032;-86
2024/01/20 07:30:44;;;;;;;9.40;6.90;;;;;;;;;;5061612;28;20115;-87
2024/01/20 07:33:11;;;;;;;11.05;7.47;;;;;;;;;;5061609;28;20016;-88
2024/01/20 07:35:37;;;;;;;10.95;7.80;;;;;;;;;;5066297;28;20028;-88
2024/01/20 07:38:04;;;;;;;13.18;7.57;;;;;;;;;;5069642;28;20033;-87
2024/01/20 07:40:30;;;;;;;11.93;7.97;;;;;;;;;;5070908;28;20024;-87
2024/01/20 07:42:56;;;;;;;12.80;8.15;;;;;;;;;;5068923;28;20514;-87
2024/01/20 07:45:22;;;;;;;13.48;9.13;;;;;;;;;;5072004;28;20381;-87
2024/01/20 07:47:48;;;;;;;12.50;7.82;;;;;;;;;;5069197;28;20021;-88
2024/01/20 07:50:15;;;;;;;12.32;8.18;;;;;;;;;;5070280;28;20849;-86
2024/01/20 07:52:41;;;;;;;13.40;9.38;;;;;;;;;;5067862;28;20111;-87
2024/01/20 07:55:07;;;;;;;17.83;9.32;;;;;;;;;;5069704;28;20100;-86
2024/01/20 07:57:33;;;;;;;18.10;10.38;;;;;;;;;;5069770;28;20029;-88
2024/01/20 07:59:59;;;;;;;15.60;9.45;;;;;;;;;;5068780;28;20036;-87
2024/01/20 08:02:25;;;;;;;18.08;9.32;;;;;;;;;;5070423;28;20567;-87
2024/01/20 08:04:51;;;;;;;13.18;8.75;;;;;;;;;;5068147;28;20028;-86
2024/01/20 08:07:17;;;;;;;16.50;9.52;;;;;;;;;;5066744;28;20029;-86
2024/01/20 08:09:43;;;;;;;14.07;9.52;;;;;;;;;;5067898;28;20029;-87
2024/01/20 08:12:09;;;;;;;13.88;9.20;;;;;;;;;;5067800;28;20461;-87
2024/01/20 08:14:35;;;;;;;17.25;10.20;;;;;;;;;;5067602;28;20024;-87
2024/01/20 08:17:01;;;;;;;20.40;11.50;;;;;;;;;;5067606;28;20120;-87
2024/01/20 08:19:27;;;;;;;16.23;10.77;;;;;;;;;;5068138;28;20547;-86
2024/01/20 08:21:53;;;;;;;17.13;10.48;;;;;;;;;;5069461;28;20031;-90
2024/01/20 08:24:19;;;;;;;15.30;9.30;;;;;;;;;;5070060;28;20074;-86
2024/01/20 08:26:45;;;;;;;16.02;9.27;;;;;;;;;;5069240;28;20498;-85
2024/01/20 08:29:11;;;;;;;13.82;9.15;;;;;;;;;;5068635;28;20032;-85
2024/01/20 08:31:37;;;;;;;18.95;10.45;;;;;;;;;;5067562;28;20035;-86
2024/01/20 08:34:03;;;;;;;18.35;10.70;;;;;;;;;;5068366;28;20025;-87
2024/01/20 08:36:29;;;;;;;17.40;10.27;;;;;;;;;;5069726;28;20028;-86
2024/01/20 08:38:56;;;;;;;16.25;10.82;;;;;;;;;;5063922;28;20123;-88
2024/01/20 08:41:22;;;;;;;14.68;9.38;;;;;;;;;;5050695;28;20029;-87
2024/01/20 08:43:48;;;;;;;18.58;10.85;;;;;;;;;;5050035;28;20465;-87
2024/01/20 08:46:14;;;;;;;18.05;10.73;;;;;;;;;;5067598;28;20420;-87
2024/01/20 08:48:40;;;;;;;19.73;10.55;;;;;;;;;;5062524;28;20425;-89
2024/01/20 08:51:07;;;;;;;14.15;9.50;;;;;;;;;;5073225;28;20024;-90
2024/01/20 08:53:33;;;;;;;13.27;8.65;;;;;;;;;;5080805;28;20040;-90
2024/01/20 08:56:00;;;;;;;17.02;9.10;;;;;;;;;;5093590;28;20033;-87
2024/01/20 08:58:26;;;;;;;16.60;9.77;;;;;;;;;;5094038;28;20037;-86
2024/01/20 09:00:52;;;;;;;16.17;10.32;;;;;;;;;;5083290;28;20499;-88
2024/01/20 09:03:18;;;;;;;15.27;9.65;;;;;;;;;;5072360;28;20029;-89
2024/01/20 09:05:44;;;;;;;15.85;9.57;;;;;;;;;;5072530;28;20032;-89
2024/01/20 09:08:10;;;;;;;17.70;9.63;;;;;;;;;;5074941;28;20024;-86
2024/01/20 09:10:37;;;;;;;14.32;9.45;;;;;;;;;;5072347;28;20028;-88
2024/01/20 09:13:07;;;;;;;17.10;9.70;;;;;;;;;;5078622;28;20518;-87
2024/01/20 09:15:33;;;;;;;18.98;9.18;;;;;;;;;;5093534;28;20028;-88
2024/01/20 09:17:59;;;;;;;21.33;10.35;;;;;;;;;;5092604;28;20032;-88
2024/01/20 09:20:25;;;;;;;15.50;9.32;;;;;;;;;;5092035;28;20111;-89
2024/01/20 09:22:51;;;;;;;18.70;10.68;;;;;;;;;;5089680;28;20055;-89
2024/01/20 09:25:18;;;;;;;19.55;10.25;;;;;;;;;;5072079;28;20504;-89
2024/01/20 09:27:44;;;;;;;19.00;9.73;;;;;;;;;;5073352;28;20025;-90
2024/01/20 09:30:11;;;;;;;17.63;9.50;;;;;;;;;;5072922;28;20119;-91
2024/01/20 09:32:37;;;;;;;18.45;10.07;;;;;;;;;;5072172;28;20029;-89
2024/01/20 09:35:03;;;;;;;23.02;9.98;;;;;;;;;;5071651;28;20373;-91
2024/01/20 09:37:29;;;;;;;19.13;10.88;;;;;;;;;;5072766;28;20392;-87
2024/01/20 09:40:00;;;;;;;20.60;10.07;;;;;;;;;;5075721;28;20029;-88
2024/01/20 09:42:27;;;;;;;16.58;9.70;;;;;;;;;;5072699;28;20032;-91
2024/01/20 09:44:53;;;;;;;18.40;10.35;;;;;;;;;;5048535;28;20028;-89
2024/01/20 09:47:19;;;;;;;22.23;10.27;;;;;;;;;;5057565;28;20029;-89
2024/01/20 09:49:45;;;;;;;18.92;10.82;;;;;;;;;;5061953;28;20027;-89
2024/01/20 09:52:24;;;;;;;17.27;10.00;;;;;;;;;;5067278;28;20111;-92
2024/01/20 09:55:10;;;;;;;16.33;9.38;;;;;;;;;;5057328;28;20039;-88
2024/01/20 09:57:37;;;;;;;23.95;10.73;;;;;;;;;;5068103;28;20039;-90
2024/01/20 10:00:04;;;;;;;18.75;9.55;;;;;;;;;;5067006;28;20020;-90
2024/01/20 10:02:33;;;;;;;23.13;10.55;;;;;;;;;;5068677;28;20074;-89
2024/01/20 10:05:03;;;;;;;21.77;10.75;;;;;;;;;;5068450;28;20408;-90
2024/01/20 10:07:29;;;;;;;21.13;10.30;;;;;;;;;;5068396;28;20056;-91
2024/01/20 10:09:56;;;;;;;20.35;10.80;;;;;;;;;;5068196;28;20081;-89
2024/01/20 10:12:24;;;;;;;22.13;10.65;;;;;;;;;;5060717;28;20031;-89
2024/01/20 10:14:51;;;;;;;20.20;11.02;;;;;;;;;;5070341;28;20032;-91
2024/01/20 10:17:17;;;;;;;17.40;9.73;;;;;;;;;;5067615;28;20040;-90
2024/01/20 10:19:43;;;;;;;22.10;11.38;;;;;;;;;;5067446;28;20021;-88
2024/01/20 10:22:09;;;;;;;19.17;9.98;;;;;;;;;;5067506;28;20032;-90
2024/01/20 10:24:35;;;;;;;18.55;10.40;;;;;;;;;;5068155;28;20025;-89
2024/01/20 10:27:03;;;;;;;18.58;10.68;;;;;;;;;;5069302;28;20651;-89
2024/01/20 10:29:29;;;;;;;23.35;10.95;;;;;;;;;;5068631;28;20051;-88
2024/01/20 10:31:55;;;;;;;21.15;9.70;;;;;;;;;;5071044;28;20025;-88
2024/01/20 10:34:24;;;;;;;17.85;10.13;;;;;;;;;;5072958;28;20035;-92
2024/01/20 10:36:54;;;;;;;22.38;9.85;;;;;;;;;;5072004;28;20063;-90
2024/01/20 10:39:21;;;;;;;18.75;9.70;;;;;;;;;;5091351;28;20020;-88
2024/01/20 10:41:48;;;;;;;17.60;9.93;;;;;;;;;;5092835;28;20104;-88
2024/01/20 10:44:16;;;;;;;16.35;10.02;;;;;;;;;;5091983;28;20023;-89
2024/01/20 10:46:46;;;;;;;15.47;9.57;;;;;;;;;;5091203;28;20123;-88
2024/01/20 10:49:16;;;;;;;14.48;8.70;;;;;;;;;;5089123;28;20271;-89
2024/01/20 10:51:42;;;;;;;16.88;9.80;;;;;;;;;;5072044;28;20069;-88
2024/01/20 10:54:09;;;;;;;19.98;9.73;;;;;;;;;;5092843;28;20028;-89
2024/01/20 10:56:36;;;;;;;19.50;10.25;;;;;;;;;;5072845;28;20036;-90
2024/01/20 10:59:08;;;;;;;28.85;10.27;;;;;;;;;;5071254;28;20052;-90
2024/01/20 11:01:35;;;;;;;15.98;9.27;;;;;;;;;;5070711;28;20112;-88
2024/01/20 11:04:01;;;;;;;19.98;10.73;;;;;;;;;;5071695;28;20049;-89
2024/01/20 11:06:28;;;;;;;13.90;8.15;;;;;;;;;;5071072;28;20423;-88
2024/01/20 11:08:54;;;;;;;14.05;8.77;;;;;;;;;;5072272;28;20362;-87
2024/01/20 11:11:20;;;;;;;15.13;8.38;;;;;;;;;;5070495;28;20036;-88
2024/01/20 11:13:47;;;;;;;15.77;8.93;;;;;;;;;;5070537;28;20415;-87
2024/01/20 11:16:20;;;;;;;13.55;8.35;;;;;;;;;;5071635;28;20112;-88
2024/01/20 11:18:46;;;;;;;15.63;8.13;;;;;;;;;;5070320;28;20033;-89
2024/01/20 11:21:15;;;;;;;12.40;8.23;;;;;;;;;;5081785;28;20028;-89
2024/01/20 11:23:45;;;;;;;13.07;8.55;;;;;;;;;;5090311;28;20028;-88
2024/01/20 11:26:11;;;;;;;16.65;10.18;;;;;;;;;;5092008;28;20125;-88
2024/01/20 11:28:40;;;;;;;21.88;12.40;;;;;;;;;;5090435;28;20082;-89
2024/01/20 11:31:06;;;;;;;25.25;14.30;;;;;;;;;;5085616;28;20025;-87
2024/01/20 11:33:32;;;;;;;20.67;12.23;;;;;;;;;;5072661;28;20033;-87
2024/01/20 11:36:00;;;;;;;19.17;10.57;;;;;;;;;;5072069;28;20033;-88
2024/01/20 11:38:26;;;;;;;17.43;10.60;;;;;;;;;;5072038;28;20021;-88
2024/01/20 11:40:58;;;;;;;16.77;10.00;;;;;;;;;;5071855;28;20328;-87
2024/01/20 11:43:24;;;;;;;15.50;9.95;;;;;;;;;;5070830;28;20594;-87
2024/01/20 11:45:50;;;;;;;14.18;9.13;;;;;;;;;;5069640;28;20119;-88
2024/01/20 11:48:17;;;;;;;14.05;8.90;;;;;;;;;;5070742;28;20025;-88
2024/01/20 11:50:44;;;;;;;16.15;9.13;;;;;;;;;;5070511;28;20028;-87
2024/01/20 11:53:10;;;;;;;13.73;8.18;;;;;;;;;;5071262;28;20021;-86
2024/01/20 11:55:36;;;;;;;13.93;8.57;;;;;;;;;;5070961;28;20035;-86
2024/01/20 11:58:08;;;;;;;15.60;9.82;;;;;;;;;;5077304;28;20033;-89
2024/01/20 12:00:33;;;;;;;19.58;8.50;;;;;;;;;;5071762;28;20024;-85
2024/01/20 12:03:00;;;;;;;14.18;7.88;;;;;;;;;;5071772;28;20112;-85
2024/01/20 12:05:26;;;;;;;13.40;8.20;;;;;;;;;;5070757;28;20029;-86
2024/01/20 12:07:52;;;;;;;11.98;7.60;;;;;;;;;;5068759;28;20039;-85
2024/01/20 12:10:18;;;;;;;13.07;8.32;;;;;;;;;;5069868;28;20451;-84
2024/01/20 12:12:44;;;;;;;13.77;8.25;;;;;;;;;;5070456;28;20412;-87
2024/01/20 12:15:10;;;;;;;17.85;9.00;;;;;;;;;;5069966;28;20484;-86
2024/01/20 12:17:37;;;;;;;14.07;8.25;;;;;;;;;;5069999;28;20042;-86
2024/01/20 12:20:03;;;;;;;16.85;9.00;;;;;;;;;;5070823;28;20073;-86
2024/01/20 12:22:31;;;;;;;18.13;10.13;;;;;;;;;;5068591;28;20033;-85
2024/01/20 12:24:58;;;;;;;20.00;10.50;;;;;;;;;;5069899;28;20349;-87
2024/01/20 12:27:25;;;;;;;17.33;9.70;;;;;;;;;;5067064;28;20027;-88
2024/01/20 12:29:52;;;;;;;16.83;9.23;;;;;;;;;;5068690;28;20043;-88
2024/01/20 12:32:19;;;;;;;16.17;9.13;;;;;;;;;;5070234;28;20020;-93
2024/01/20 12:34:45;;;;;;;14.23;8.90;;;;;;;;;;5068933;28;20038;-89
2024/01/20 12:37:13;;;;;;;17.30;9.07;;;;;;;;;;5055528;28;20032;-90
2024/01/20 12:39:39;;;;;;;16.15;9.40;;;;;;;;;;5052122;28;20436;-90
2024/01/20 12:42:05;;;;;;;15.82;8.23;;;;;;;;;;5066930;28;20028;-89
2024/01/20 12:44:31;;;;;;;17.58;8.90;;;;;;;;;;5065738;28;20025;-88
2024/01/20 12:46:57;;;;;;;15.63;9.65;;;;;;;;;;5067242;28;20449;-88
2024/01/20 12:49:23;;;;;;;14.30;8.73;;;;;;;;;;5067779;28;20028;-88
2024/01/20 12:51:49;;;;;;;11.88;8.10;;;;;;;;;;5069020;28;20031;-90
2024/01/20 12:54:15;;;;;;;14.45;8.10;;;;;;;;;;5068277;28;20029;-89
2024/01/20 12:56:41;;;;;;;14.85;8.25;;;;;;;;;;5065995;28;20036;-89
2024/01/20 12:59:07;;;;;;;14.77;8.40;;;;;;;;;;5067712;28;20024;-87
2024/01/20 13:01:33;;;;;;;15.52;8.23;;;;;;;;;;5066584;28;20102;-86
2024/01/20 13:03:59;;;;;;;12.60;8.13;;;;;;;;;;5067731;28;20474;-87
2024/01/20 13:06:25;;;;;;;13.48;7.40;;;;;;;;;;5067596;28;20024;-87
2024/01/20 13:08:51;;;;;;;18.42;7.97;;;;;;;;;;5066258;28;20028;-87
2024/01/20 13:11:17;;;;;;;12.63;8.02;;;;;;;;;;5062609;28;20480;-87
2024/01/20 13:13:43;;;;;;;13.63;8.63;;;;;;;;;;5066598;28;20041;-85
2024/01/20 13:16:09;;;;;;;12.75;8.50;;;;;;;;;;5067729;28;20098;-86
2024/01/20 13:18:35;;;;;;;14.38;8.40;;;;;;;;;;5069910;28;20025;-86
2024/01/20 13:21:02;;;;;;;15.52;8.32;;;;;;;;;;5069296;28;20228;-86
2024/01/20 13:23:28;;;;;;;14.38;8.07;;;;;;;;;;5069492;28;20032;-85
2024/01/20 13:25:55;;;;;;;12.65;8.15;;;;;;;;;;5068976;28;20024;-86
2024/01/20 13:28:23;;;;;;;13.38;7.75;;;;;;;;;;5060084;28;20037;-86
2024/01/20 13:30:49;;;;;;;15.43;8.80;;;;;;;;;;5049092;28;20448;-85
2024/01/20 13:33:15;;;;;;;12.48;7.93;;;;;;;;;;5077601;28;20037;-86
2024/01/20 13:35:41;;;;;;;13.25;8.15;;;;;;;;;;5068395;28;20111;-86
2024/01/20 13:38:08;;;;;;;12.48;7.72;;;;;;;;;;5069038;28;20083;-86
2024/01/20 13:40:34;;;;;;;15.35;8.95;;;;;;;;;;5068979;28;20023;-83
2024/01/20 13:43:00;;;;;;;13.32;7.95;;;;;;;;;;5068931;28;20414;-82
2024/01/20 13:45:26;;;;;;;11.70;7.85;;;;;;;;;;5067357;28;20036;-82
2024/01/20 13:47:52;;;;;;;13.10;8.18;;;;;;;;;;5067593;28;20029;-82
2024/01/20 13:50:18;;;;;;;11.23;7.45;;;;;;;;;;5069037;28;20060;-82
2024/01/20 13:52:44;;;;;;;15.20;9.35;;;;;;;;;;5069056;28;20052;-82
2024/01/20 13:55:10;;;;;;;11.77;7.82;;;;;;;;;;5069901;28;20553;-82
2024/01/20 13:57:36;;;;;;;16.42;8.77;;;;;;;;;;5069688;28;20032;-81
2024/01/20 14:00:03;;;;;;;12.85;8.60;;;;;;;;;;5068490;28;20043;-81
2024/01/20 14:02:29;;;;;;;13.77;8.68;;;;;;;;;;5068870;28;20485;-82
2024/01/20 14:04:56;;;;;;;15.50;7.95;;;;;;;;;;5068884;28;20028;-82
2024/01/20 14:07:22;;;;;;;13.20;8.68;;;;;;;;;;5070487;28;20040;-82
2024/01/20 14:09:48;;;;;;;15.82;8.07;;;;;;;;;;5072540;28;20043;-82
2024/01/20 14:12:14;;;;;;;13.38;8.07;;;;;;;;;;5072961;28;20024;-82
2024/01/20 14:14:40;;;;;;;14.95;8.65;;;;;;;;;;5073730;28;20028;-82
2024/01/20 14:17:07;;;;;;;12.55;8.65;;;;;;;;;;5072596;28;20111;-81
2024/01/20 14:19:33;;;;;;;14.07;8.20;;;;;;;;;;5075404;28;20033;-82
2024/01/20 14:21:59;;;;;;;13.68;7.88;;;;;;;;;;5092996;28;20552;-82
2024/01/20 14:24:25;;;;;;;15.45;8.75;;;;;;;;;;5091622;28;20111;-82